sensor_id;sensor_type;location;lat;lon;timestamp;temperature;humidity
6556;DHT22;3311;48.32423000;14.29074500;2023-01-29T00:01:19;7.60;58.70
6556;DHT22;3311;48.32423000;14.29074500;2023-01-29T00:03:49;7.50;58.90
6556;DHT22;3311;48.32423000;14.29074500;2023-01-29T00:06:17;7.50;59.20
6556;DHT22;3311;48.32423000;14.29074500;2023-01-29T00:08:45;7.50;59.30
6556;DHT22;3311;48.32423000;14.29074500;2023-01-29T00:11:13;7.60;59.10
6556;DHT22;3311;48.32423000;14.29074500;2023-01-29T00:13:41;7.70;58.80
6556;DHT22;3311;48.32423000;14.29074500;2023-01-29T00:16:09;7.70;58.80
6556;DHT22;3311;48.32423000;14.29074500;2023-01-29T00:18:38;7.60;58.60
6556;DHT22;3311;48.32423000;14.29074500;2023-01-29T00:21:08;7.60;58.80
6556;DHT22;3311;48.32423000;14.29074500;2023-01-29T00:23:36;7.60;58.60
6556;DHT22;3311;48.32423000;14.29074500;2023-01-29T00:26:04;7.60;58.50
6556;DHT22;3311;48.32423000;14.29074500;2023-01-29T00:28:33;7.60;58.60
6556;DHT22;3311;48.32423000;14.29074500;2023-01-29T00:31:06;7.70;58.40
6556;DHT22;3311;48.32423000;14.29074500;2023-01-29T00:33:34;7.50;58.40
6556;DHT22;3311;48.32423000;14.29074500;2023-01-29T00:36:02;7.60;58.50
6556;DHT22;3311;48.32423000;14.29074500;2023-01-29T00:38:30;7.70;58.40
6556;DHT22;3311;48.32423000;14.29074500;2023-01-29T00:41:05;7.70;58.40
6556;DHT22;3311;48.32423000;14.29074500;2023-01-29T00:43:51;7.60;58.40
6556;DHT22;3311;48.32423000;14.29074500;2023-01-29T00:46:36;7.70;58.30
6556;DHT22;3311;48.32423000;14.29074500;2023-01-29T00:49:03;7.70;57.90
6556;DHT22;3311;48.32423000;14.29074500;2023-01-29T00:51:31;7.70;57.70
6556;DHT22;3311;48.32423000;14.29074500;2023-01-29T00:53:58;7.80;57.20
6556;DHT22;3311;48.32423000;14.29074500;2023-01-29T00:56:26;7.90;57.00
6556;DHT22;3311;48.32423000;14.29074500;2023-01-29T00:58:56;7.90;56.10
6556;DHT22;3311;48.32423000;14.29074500;2023-01-29T01:01:23;7.90;55.70
6556;DHT22;3311;48.32423000;14.29074500;2023-01-29T01:04:05;7.80;55.50
6556;DHT22;3311;48.32423000;14.29074500;2023-01-29T01:06:32;7.70;55.10
6556;DHT22;3311;48.32423000;14.29074500;2023-01-29T01:09:00;7.60;55.50
6556;DHT22;3311;48.32423000;14.29074500;2023-01-29T01:11:44;7.60;55.60
6556;DHT22;3311;48.32423000;14.29074500;2023-01-29T01:14:13;7.70;55.70
6556;DHT22;3311;48.32423000;14.29074500;2023-01-29T01:16:40;7.80;55.40
6556;DHT22;3311;48.32423000;14.29074500;2023-01-29T01:19:08;7.80;54.80
6556;DHT22;3311;48.32423000;14.29074500;2023-01-29T01:21:35;8.00;55.00
6556;DHT22;3311;48.32423000;14.29074500;2023-01-29T01:24:03;8.10;54.80
6556;DHT22;3311;48.32423000;14.29074500;2023-01-29T01:26:31;7.90;54.20
6556;DHT22;3311;48.32423000;14.29074500;2023-01-29T01:28:58;7.90;54.80
6556;DHT22;3311;48.32423000;14.29074500;2023-01-29T01:31:27;8.00;54.60
6556;DHT22;3311;48.32423000;14.29074500;2023-01-29T01:33:54;8.00;54.30
6556;DHT22;3311;48.32423000;14.29074500;2023-01-29T01:36:22;7.90;54.40
6556;DHT22;3311;48.32423000;14.29074500;2023-01-29T01:38:49;7.80;54.20
6556;DHT22;3311;48.32423000;14.29074500;2023-01-29T01:41:18;7.90;54.20
6556;DHT22;3311;48.32423000;14.29074500;2023-01-29T01:43:48;7.90;54.20
6556;DHT22;3311;48.32423000;14.29074500;2023-01-29T01:46:16;7.90;53.80
6556;DHT22;3311;48.32423000;14.29074500;2023-01-29T01:48:47;7.80;53.90
6556;DHT22;3311;48.32423000;14.29074500;2023-01-29T01:51:16;7.70;54.20
6556;DHT22;3311;48.32423000;14.29074500;2023-01-29T01:53:49;7.60;54.10
6556;DHT22;3311;48.32423000;14.29074500;2023-01-29T01:56:22;7.60;54.50
6556;DHT22;3311;48.32423000;14.29074500;2023-01-29T01:58:53;7.80;54.20
6556;DHT22;3311;48.32423000;14.29074500;2023-01-29T02:01:22;7.80;53.90
6556;DHT22;3311;48.32423000;14.29074500;2023-01-29T02:03:58;7.70;53.60
6556;DHT22;3311;48.32423000;14.29074500;2023-01-29T02:06:44;7.60;53.90
6556;DHT22;3311;48.32423000;14.29074500;2023-01-29T02:09:34;7.50;54.10
6556;DHT22;3311;48.32423000;14.29074500;2023-01-29T02:12:04;7.60;54.10
6556;DHT22;3311;48.32423000;14.29074500;2023-01-29T02:14:33;7.60;54.20
6556;DHT22;3311;48.32423000;14.29074500;2023-01-29T02:17:05;7.60;54.00
6556;DHT22;3311;48.32423000;14.29074500;2023-01-29T02:19:43;7.50;54.20
6556;DHT22;3311;48.32423000;14.29074500;2023-01-29T02:22:52;7.60;54.10
6556;DHT22;3311;48.32423000;14.29074500;2023-01-29T02:28:39;7.60;53.90
6556;DHT22;3311;48.32423000;14.29074500;2023-01-29T02:31:23;7.60;53.90
6556;DHT22;3311;48.32423000;14.29074500;2023-01-29T02:33:58;7.70;54.00
6556;DHT22;3311;48.32423000;14.29074500;2023-01-29T02:36:34;7.60;53.60
6556;DHT22;3311;48.32423000;14.29074500;2023-01-29T02:39:18;7.60;53.80
6556;DHT22;3311;48.32423000;14.29074500;2023-01-29T02:41:55;7.60;53.70
6556;DHT22;3311;48.32423000;14.29074500;2023-01-29T02:44:33;7.60;53.60
6556;DHT22;3311;48.32423000;14.29074500;2023-01-29T02:47:04;7.50;53.60
6556;DHT22;3311;48.32423000;14.29074500;2023-01-29T02:49:42;7.50;53.90
6556;DHT22;3311;48.32423000;14.29074500;2023-01-29T02:52:15;7.50;53.80
6556;DHT22;3311;48.32423000;14.29074500;2023-01-29T02:54:49;7.60;54.10
6556;DHT22;3311;48.32423000;14.29074500;2023-01-29T02:57:21;7.50;54.00
6556;DHT22;3311;48.32423000;14.29074500;2023-01-29T02:59:55;7.60;54.00
6556;DHT22;3311;48.32423000;14.29074500;2023-01-29T03:02:29;7.60;54.00
6556;DHT22;3311;48.32423000;14.29074500;2023-01-29T03:05:00;7.50;53.90
6556;DHT22;3311;48.32423000;14.29074500;2023-01-29T03:07:34;7.50;54.00
6556;DHT22;3311;48.32423000;14.29074500;2023-01-29T03:10:16;7.60;53.70
6556;DHT22;3311;48.32423000;14.29074500;2023-01-29T03:12:48;7.50;53.90
6556;DHT22;3311;48.32423000;14.29074500;2023-01-29T03:15:25;7.60;53.80
6556;DHT22;3311;48.32423000;14.29074500;2023-01-29T03:17:57;7.70;54.00
6556;DHT22;3311;48.32423000;14.29074500;2023-01-29T03:20:41;7.60;53.80
6556;DHT22;3311;48.32423000;14.29074500;2023-01-29T03:23:17;7.70;53.80
6556;DHT22;3311;48.32423000;14.29074500;2023-01-29T03:25:55;7.70;53.70
6556;DHT22;3311;48.32423000;14.29074500;2023-01-29T03:28:42;7.70;53.80
6556;DHT22;3311;48.32423000;14.29074500;2023-01-29T03:31:30;7.70;53.90
6556;DHT22;3311;48.32423000;14.29074500;2023-01-29T03:34:17;7.70;53.80
6556;DHT22;3311;48.32423000;14.29074500;2023-01-29T03:36:53;7.60;53.90
6556;DHT22;3311;48.32423000;14.29074500;2023-01-29T03:39:24;7.60;54.00
6556;DHT22;3311;48.32423000;14.29074500;2023-01-29T03:41:57;7.60;53.90
6556;DHT22;3311;48.32423000;14.29074500;2023-01-29T03:44:33;7.60;53.90
6556;DHT22;3311;48.32423000;14.29074500;2023-01-29T03:47:11;7.50;54.10
6556;DHT22;3311;48.32423000;14.29074500;2023-01-29T03:49:52;7.50;54.30
6556;DHT22;3311;48.32423000;14.29074500;2023-01-29T03:52:26;7.60;54.30
6556;DHT22;3311;48.32423000;14.29074500;2023-01-29T03:54:59;7.50;54.10
6556;DHT22;3311;48.32423000;14.29074500;2023-01-29T03:57:36;7.50;54.40
6556;DHT22;3311;48.32423000;14.29074500;2023-01-29T04:00:09;7.40;54.40
6556;DHT22;3311;48.32423000;14.29074500;2023-01-29T04:02:47;7.40;54.70
6556;DHT22;3311;48.32423000;14.29074500;2023-01-29T04:05:19;7.40;54.50
6556;DHT22;3311;48.32423000;14.29074500;2023-01-29T04:07:51;7.40;54.30
6556;DHT22;3311;48.32423000;14.29074500;2023-01-29T04:10:24;7.30;54.40
6556;DHT22;3311;48.32423000;14.29074500;2023-01-29T04:12:57;7.30;54.80
6556;DHT22;3311;48.32423000;14.29074500;2023-01-29T04:15:28;7.50;54.60
6556;DHT22;3311;48.32423000;14.29074500;2023-01-29T04:17:58;7.40;54.60
6556;DHT22;3311;48.32423000;14.29074500;2023-01-29T04:20:26;7.30;54.60
6556;DHT22;3311;48.32423000;14.29074500;2023-01-29T04:22:53;7.40;54.80
6556;DHT22;3311;48.32423000;14.29074500;2023-01-29T04:25:22;7.50;54.50
6556;DHT22;3311;48.32423000;14.29074500;2023-01-29T04:27:59;7.50;54.20
6556;DHT22;3311;48.32423000;14.29074500;2023-01-29T04:30:38;7.30;54.70
6556;DHT22;3311;48.32423000;14.29074500;2023-01-29T04:33:21;7.20;55.20
6556;DHT22;3311;48.32423000;14.29074500;2023-01-29T04:36:02;7.40;55.20
6556;DHT22;3311;48.32423000;14.29074500;2023-01-29T04:38:46;7.30;55.20
6556;DHT22;3311;48.32423000;14.29074500;2023-01-29T04:41:23;7.30;55.20
6556;DHT22;3311;48.32423000;14.29074500;2023-01-29T04:44:00;7.30;55.40
6556;DHT22;3311;48.32423000;14.29074500;2023-01-29T04:46:34;7.30;55.20
6556;DHT22;3311;48.32423000;14.29074500;2023-01-29T04:49:17;7.40;55.00
6556;DHT22;3311;48.32423000;14.29074500;2023-01-29T04:51:56;7.50;54.80
6556;DHT22;3311;48.32423000;14.29074500;2023-01-29T04:54:33;7.60;54.40
6556;DHT22;3311;48.32423000;14.29074500;2023-01-29T04:57:09;7.40;54.40
6556;DHT22;3311;48.32423000;14.29074500;2023-01-29T04:59:41;7.50;54.70
6556;DHT22;3311;48.32423000;14.29074500;2023-01-29T05:02:12;7.50;54.50
6556;DHT22;3311;48.32423000;14.29074500;2023-01-29T05:04:43;7.40;54.40
6556;DHT22;3311;48.32423000;14.29074500;2023-01-29T05:07:13;7.30;54.50
6556;DHT22;3311;48.32423000;14.29074500;2023-01-29T05:09:43;7.60;54.70
6556;DHT22;3311;48.32423000;14.29074500;2023-01-29T05:12:14;7.50;54.20
6556;DHT22;3311;48.32423000;14.29074500;2023-01-29T05:14:44;7.60;54.00
6556;DHT22;3311;48.32423000;14.29074500;2023-01-29T05:17:15;7.50;54.10
6556;DHT22;3311;48.32423000;14.29074500;2023-01-29T05:19:44;7.60;54.00
6556;DHT22;3311;48.32423000;14.29074500;2023-01-29T05:22:14;7.50;53.80
6556;DHT22;3311;48.32423000;14.29074500;2023-01-29T05:24:42;7.50;53.70
6556;DHT22;3311;48.32423000;14.29074500;2023-01-29T05:27:16;7.50;53.80
6556;DHT22;3311;48.32423000;14.29074500;2023-01-29T05:30:02;7.50;53.90
6556;DHT22;3311;48.32423000;14.29074500;2023-01-29T05:32:29;7.50;54.00
6556;DHT22;3311;48.32423000;14.29074500;2023-01-29T05:34:58;7.50;53.90
6556;DHT22;3311;48.32423000;14.29074500;2023-01-29T05:37:25;7.60;53.90
6556;DHT22;3311;48.32423000;14.29074500;2023-01-29T05:39:52;7.50;54.10
6556;DHT22;3311;48.32423000;14.29074500;2023-01-29T05:42:20;7.30;54.20
6556;DHT22;3311;48.32423000;14.29074500;2023-01-29T05:44:47;7.40;54.40
6556;DHT22;3311;48.32423000;14.29074500;2023-01-29T05:47:18;7.50;54.50
6556;DHT22;3311;48.32423000;14.29074500;2023-01-29T05:49:46;7.70;54.90
6556;DHT22;3311;48.32423000;14.29074500;2023-01-29T05:52:14;7.70;55.00
6556;DHT22;3311;48.32423000;14.29074500;2023-01-29T05:54:42;7.70;55.30
6556;DHT22;3311;48.32423000;14.29074500;2023-01-29T05:57:09;7.70;55.40
6556;DHT22;3311;48.32423000;14.29074500;2023-01-29T05:59:36;7.80;55.70
6556;DHT22;3311;48.32423000;14.29074500;2023-01-29T06:02:04;7.90;55.30
6556;DHT22;3311;48.32423000;14.29074500;2023-01-29T06:04:32;7.80;55.30
6556;DHT22;3311;48.32423000;14.29074500;2023-01-29T06:06:59;7.90;55.40
6556;DHT22;3311;48.32423000;14.29074500;2023-01-29T06:09:29;7.80;55.40
6556;DHT22;3311;48.32423000;14.29074500;2023-01-29T06:11:57;7.90;55.60
6556;DHT22;3311;48.32423000;14.29074500;2023-01-29T06:14:24;8.00;55.40
6556;DHT22;3311;48.32423000;14.29074500;2023-01-29T06:16:51;8.00;55.40
6556;DHT22;3311;48.32423000;14.29074500;2023-01-29T06:19:19;8.00;55.50
6556;DHT22;3311;48.32423000;14.29074500;2023-01-29T06:21:46;8.00;55.30
6556;DHT22;3311;48.32423000;14.29074500;2023-01-29T06:24:13;8.00;55.40
6556;DHT22;3311;48.32423000;14.29074500;2023-01-29T06:26:42;8.00;55.60
6556;DHT22;3311;48.32423000;14.29074500;2023-01-29T06:29:09;8.00;55.60
6556;DHT22;3311;48.32423000;14.29074500;2023-01-29T06:31:37;8.00;55.70
6556;DHT22;3311;48.32423000;14.29074500;2023-01-29T06:34:04;8.00;55.70
6556;DHT22;3311;48.32423000;14.29074500;2023-01-29T06:36:32;8.00;55.80
6556;DHT22;3311;48.32423000;14.29074500;2023-01-29T06:38:59;8.00;55.90
6556;DHT22;3311;48.32423000;14.29074500;2023-01-29T06:41:27;8.00;55.90
6556;DHT22;3311;48.32423000;14.29074500;2023-01-29T06:43:55;8.10;56.00
6556;DHT22;3311;48.32423000;14.29074500;2023-01-29T06:46:23;8.00;56.10
6556;DHT22;3311;48.32423000;14.29074500;2023-01-29T06:48:50;8.10;55.90
6556;DHT22;3311;48.32423000;14.29074500;2023-01-29T06:51:17;8.20;55.80
6556;DHT22;3311;48.32423000;14.29074500;2023-01-29T06:53:46;8.20;55.80
6556;DHT22;3311;48.32423000;14.29074500;2023-01-29T06:56:13;8.20;55.80
6556;DHT22;3311;48.32423000;14.29074500;2023-01-29T06:58:40;8.30;55.70
6556;DHT22;3311;48.32423000;14.29074500;2023-01-29T07:01:10;8.30;55.70
6556;DHT22;3311;48.32423000;14.29074500;2023-01-29T07:03:38;8.20;55.70
6556;DHT22;3311;48.32423000;14.29074500;2023-01-29T07:06:06;8.20;55.90
6556;DHT22;3311;48.32423000;14.29074500;2023-01-29T07:08:36;8.20;55.80
6556;DHT22;3311;48.32423000;14.29074500;2023-01-29T07:11:04;8.30;55.80
6556;DHT22;3311;48.32423000;14.29074500;2023-01-29T07:13:32;8.30;55.80
6556;DHT22;3311;48.32423000;14.29074500;2023-01-29T07:15:59;8.30;55.90
6556;DHT22;3311;48.32423000;14.29074500;2023-01-29T07:18:29;8.30;55.70
6556;DHT22;3311;48.32423000;14.29074500;2023-01-29T07:20:57;8.20;55.80
6556;DHT22;3311;48.32423000;14.29074500;2023-01-29T07:23:26;8.30;55.90
6556;DHT22;3311;48.32423000;14.29074500;2023-01-29T07:25:53;8.30;55.70
6556;DHT22;3311;48.32423000;14.29074500;2023-01-29T07:28:21;8.40;55.80
6556;DHT22;3311;48.32423000;14.29074500;2023-01-29T07:30:48;8.40;55.70
6556;DHT22;3311;48.32423000;14.29074500;2023-01-29T07:33:16;8.40;55.70
6556;DHT22;3311;48.32423000;14.29074500;2023-01-29T07:35:45;8.50;55.60
6556;DHT22;3311;48.32423000;14.29074500;2023-01-29T07:38:12;8.50;55.40
6556;DHT22;3311;48.32423000;14.29074500;2023-01-29T07:40:39;8.50;55.30
6556;DHT22;3311;48.32423000;14.29074500;2023-01-29T07:43:07;8.50;55.30
6556;DHT22;3311;48.32423000;14.29074500;2023-01-29T07:45:37;8.60;55.30
6556;DHT22;3311;48.32423000;14.29074500;2023-01-29T07:48:05;8.60;55.10
6556;DHT22;3311;48.32423000;14.29074500;2023-01-29T07:50:34;8.60;55.10
6556;DHT22;3311;48.32423000;14.29074500;2023-01-29T07:53:03;8.60;54.80
6556;DHT22;3311;48.32423000;14.29074500;2023-01-29T07:55:31;8.50;54.60
6556;DHT22;3311;48.32423000;14.29074500;2023-01-29T07:58:00;8.50;54.50
6556;DHT22;3311;48.32423000;14.29074500;2023-01-29T08:00:28;8.50;54.70
6556;DHT22;3311;48.32423000;14.29074500;2023-01-29T08:03:02;8.30;54.80
6556;DHT22;3311;48.32423000;14.29074500;2023-01-29T08:05:29;8.30;54.70
6556;DHT22;3311;48.32423000;14.29074500;2023-01-29T08:07:56;8.20;54.80
6556;DHT22;3311;48.32423000;14.29074500;2023-01-29T08:10:25;8.20;55.00
6556;DHT22;3311;48.32423000;14.29074500;2023-01-29T08:12:55;8.30;54.80
6556;DHT22;3311;48.32423000;14.29074500;2023-01-29T08:15:25;8.40;54.70
6556;DHT22;3311;48.32423000;14.29074500;2023-01-29T08:17:54;8.50;54.40
6556;DHT22;3311;48.32423000;14.29074500;2023-01-29T08:20:22;8.50;54.20
6556;DHT22;3311;48.32423000;14.29074500;2023-01-29T08:22:57;8.60;54.90
6556;DHT22;3311;48.32423000;14.29074500;2023-01-29T08:25:28;8.80;54.50
6556;DHT22;3311;48.32423000;14.29074500;2023-01-29T08:27:59;8.80;53.80
6556;DHT22;3311;48.32423000;14.29074500;2023-01-29T08:30:31;8.70;53.30
6556;DHT22;3311;48.32423000;14.29074500;2023-01-29T08:32:59;8.60;53.70
6556;DHT22;3311;48.32423000;14.29074500;2023-01-29T08:35:27;8.50;53.60
6556;DHT22;3311;48.32423000;14.29074500;2023-01-29T08:37:55;8.50;53.50
6556;DHT22;3311;48.32423000;14.29074500;2023-01-29T08:40:26;8.70;55.30
6556;DHT22;3311;48.32423000;14.29074500;2023-01-29T08:42:57;9.00;54.40
6556;DHT22;3311;48.32423000;14.29074500;2023-01-29T08:45:25;8.80;53.60
6556;DHT22;3311;48.32423000;14.29074500;2023-01-29T08:47:52;8.70;53.90
6556;DHT22;3311;48.32423000;14.29074500;2023-01-29T08:50:20;8.60;53.60
6556;DHT22;3311;48.32423000;14.29074500;2023-01-29T08:52:48;8.60;53.50
6556;DHT22;3311;48.32423000;14.29074500;2023-01-29T08:55:15;8.70;53.60
6556;DHT22;3311;48.32423000;14.29074500;2023-01-29T08:57:44;8.70;53.80
6556;DHT22;3311;48.32423000;14.29074500;2023-01-29T09:00:12;8.80;53.40
6556;DHT22;3311;48.32423000;14.29074500;2023-01-29T09:02:40;8.80;52.80
6556;DHT22;3311;48.32423000;14.29074500;2023-01-29T09:05:09;9.00;53.00
6556;DHT22;3311;48.32423000;14.29074500;2023-01-29T09:07:36;8.80;52.60
6556;DHT22;3311;48.32423000;14.29074500;2023-01-29T09:10:04;8.90;52.60
6556;DHT22;3311;48.32423000;14.29074500;2023-01-29T09:12:32;8.80;52.80
6556;DHT22;3311;48.32423000;14.29074500;2023-01-29T09:15:00;8.80;52.50
6556;DHT22;3311;48.32423000;14.29074500;2023-01-29T09:17:28;8.80;52.50
6556;DHT22;3311;48.32423000;14.29074500;2023-01-29T09:19:55;8.80;52.30
6556;DHT22;3311;48.32423000;14.29074500;2023-01-29T09:22:23;8.90;52.20
6556;DHT22;3311;48.32423000;14.29074500;2023-01-29T09:24:50;8.90;52.00
6556;DHT22;3311;48.32423000;14.29074500;2023-01-29T09:27:19;9.00;52.10
6556;DHT22;3311;48.32423000;14.29074500;2023-01-29T09:29:47;8.90;51.60
6556;DHT22;3311;48.32423000;14.29074500;2023-01-29T09:32:17;9.00;51.60
6556;DHT22;3311;48.32423000;14.29074500;2023-01-29T09:34:44;9.00;51.10
6556;DHT22;3311;48.32423000;14.29074500;2023-01-29T09:37:11;9.00;51.40
6556;DHT22;3311;48.32423000;14.29074500;2023-01-29T09:39:40;9.10;51.20
6556;DHT22;3311;48.32423000;14.29074500;2023-01-29T09:42:11;9.20;50.90
6556;DHT22;3311;48.32423000;14.29074500;2023-01-29T09:44:55;9.00;50.90
6556;DHT22;3311;48.32423000;14.29074500;2023-01-29T09:47:26;9.10;51.00
6556;DHT22;3311;48.32423000;14.29074500;2023-01-29T09:49:58;9.10;50.60
6556;DHT22;3311;48.32423000;14.29074500;2023-01-29T09:52:34;9.10;50.40
6556;DHT22;3311;48.32423000;14.29074500;2023-01-29T09:55:11;9.00;50.30
6556;DHT22;3311;48.32423000;14.29074500;2023-01-29T09:57:45;9.00;50.60
6556;DHT22;3311;48.32423000;14.29074500;2023-01-29T10:00:17;9.10;50.60
6556;DHT22;3311;48.32423000;14.29074500;2023-01-29T10:03:09;9.10;50.20
6556;DHT22;3311;48.32423000;14.29074500;2023-01-29T10:05:50;9.10;50.40
6556;DHT22;3311;48.32423000;14.29074500;2023-01-29T10:08:49;9.20;50.20
6556;DHT22;3311;48.32423000;14.29074500;2023-01-29T10:11:32;9.10;50.00
6556;DHT22;3311;48.32423000;14.29074500;2023-01-29T10:14:12;9.20;50.00
6556;DHT22;3311;48.32423000;14.29074500;2023-01-29T10:16:53;9.20;49.70
6556;DHT22;3311;48.32423000;14.29074500;2023-01-29T10:19:47;9.10;49.90
6556;DHT22;3311;48.32423000;14.29074500;2023-01-29T10:22:35;9.10;49.80
6556;DHT22;3311;48.32423000;14.29074500;2023-01-29T10:25:10;9.20;50.00
6556;DHT22;3311;48.32423000;14.29074500;2023-01-29T10:27:43;9.10;49.50
6556;DHT22;3311;48.32423000;14.29074500;2023-01-29T10:30:27;9.20;50.10
6556;DHT22;3311;48.32423000;14.29074500;2023-01-29T10:33:01;9.30;49.20
6556;DHT22;3311;48.32423000;14.29074500;2023-01-29T10:35:34;9.30;48.70
6556;DHT22;3311;48.32423000;14.29074500;2023-01-29T10:38:19;9.20;48.90
6556;DHT22;3311;48.32423000;14.29074500;2023-01-29T10:40:57;9.10;48.60
6556;DHT22;3311;48.32423000;14.29074500;2023-01-29T10:43:34;9.20;48.60
6556;DHT22;3311;48.32423000;14.29074500;2023-01-29T10:46:13;9.10;49.00
6556;DHT22;3311;48.32423000;14.29074500;2023-01-29T10:48:56;9.10;48.40
6556;DHT22;3311;48.32423000;14.29074500;2023-01-29T10:51:39;9.10;48.40
6556;DHT22;3311;48.32423000;14.29074500;2023-01-29T10:54:25;9.10;48.30
6556;DHT22;3311;48.32423000;14.29074500;2023-01-29T10:57:03;9.10;48.10
6556;DHT22;3311;48.32423000;14.29074500;2023-01-29T10:59:45;9.10;48.50
6556;DHT22;3311;48.32423000;14.29074500;2023-01-29T11:02:18;9.20;47.70
6556;DHT22;3311;48.32423000;14.29074500;2023-01-29T11:04:47;9.10;47.50
6556;DHT22;3311;48.32423000;14.29074500;2023-01-29T11:07:18;9.00;47.60
6556;DHT22;3311;48.32423000;14.29074500;2023-01-29T11:09:53;9.00;48.20
6556;DHT22;3311;48.32423000;14.29074500;2023-01-29T11:12:27;9.10;48.10
6556;DHT22;3311;48.32423000;14.29074500;2023-01-29T11:15:00;9.10;47.50
6556;DHT22;3311;48.32423000;14.29074500;2023-01-29T11:17:29;9.00;47.30
6556;DHT22;3311;48.32423000;14.29074500;2023-01-29T11:19:58;9.10;47.60
6556;DHT22;3311;48.32423000;14.29074500;2023-01-29T11:22:33;9.20;47.60
6556;DHT22;3311;48.32423000;14.29074500;2023-01-29T11:25:09;9.10;47.00
6556;DHT22;3311;48.32423000;14.29074500;2023-01-29T11:27:47;9.10;47.30
6556;DHT22;3311;48.32423000;14.29074500;2023-01-29T11:30:21;9.10;47.10
6556;DHT22;3311;48.32423000;14.29074500;2023-01-29T11:32:55;9.20;47.10
6556;DHT22;3311;48.32423000;14.29074500;2023-01-29T11:35:24;9.20;46.90
6556;DHT22;3311;48.32423000;14.29074500;2023-01-29T11:38:06;9.20;46.70
6556;DHT22;3311;48.32423000;14.29074500;2023-01-29T11:40:39;9.20;46.90
6556;DHT22;3311;48.32423000;14.29074500;2023-01-29T11:43:21;9.20;46.80
6556;DHT22;3311;48.32423000;14.29074500;2023-01-29T11:45:52;9.20;46.70
6556;DHT22;3311;48.32423000;14.29074500;2023-01-29T11:48:24;9.20;46.70
6556;DHT22;3311;48.32423000;14.29074500;2023-01-29T11:50:57;9.20;46.70
6556;DHT22;3311;48.32423000;14.29074500;2023-01-29T11:53:36;9.20;47.10
6556;DHT22;3311;48.32423000;14.29074500;2023-01-29T11:56:15;9.30;46.60
6556;DHT22;3311;48.32423000;14.29074500;2023-01-29T11:58:45;9.30;46.80
6556;DHT22;3311;48.32423000;14.29074500;2023-01-29T12:01:16;9.40;46.70
6556;DHT22;3311;48.32423000;14.29074500;2023-01-29T12:03:48;9.50;46.60
6556;DHT22;3311;48.32423000;14.29074500;2023-01-29T12:06:21;9.40;46.60
6556;DHT22;3311;48.32423000;14.29074500;2023-01-29T12:08:56;9.40;46.50
6556;DHT22;3311;48.32423000;14.29074500;2023-01-29T12:11:27;9.40;46.60
6556;DHT22;3311;48.32423000;14.29074500;2023-01-29T12:13:58;9.50;46.80
6556;DHT22;3311;48.32423000;14.29074500;2023-01-29T12:16:30;9.50;46.50
6556;DHT22;3311;48.32423000;14.29074500;2023-01-29T12:19:08;9.40;46.40
6556;DHT22;3311;48.32423000;14.29074500;2023-01-29T12:21:45;9.40;46.30
6556;DHT22;3311;48.32423000;14.29074500;2023-01-29T12:24:30;9.30;46.70
6556;DHT22;3311;48.32423000;14.29074500;2023-01-29T12:27:06;9.40;46.60
6556;DHT22;3311;48.32423000;14.29074500;2023-01-29T12:29:41;9.30;46.70
6556;DHT22;3311;48.32423000;14.29074500;2023-01-29T12:32:31;9.40;46.90
6556;DHT22;3311;48.32423000;14.29074500;2023-01-29T12:35:09;9.50;47.00
6556;DHT22;3311;48.32423000;14.29074500;2023-01-29T12:37:51;9.50;46.70
6556;DHT22;3311;48.32423000;14.29074500;2023-01-29T12:40:29;9.40;46.50
6556;DHT22;3311;48.32423000;14.29074500;2023-01-29T12:43:02;9.50;46.70
6556;DHT22;3311;48.32423000;14.29074500;2023-01-29T12:45:32;9.30;46.40
6556;DHT22;3311;48.32423000;14.29074500;2023-01-29T12:48:06;9.30;46.70
6556;DHT22;3311;48.32423000;14.29074500;2023-01-29T12:50:35;9.30;46.80
6556;DHT22;3311;48.32423000;14.29074500;2023-01-29T12:53:13;9.40;46.80
6556;DHT22;3311;48.32423000;14.29074500;2023-01-29T12:55:52;9.50;46.50
6556;DHT22;3311;48.32423000;14.29074500;2023-01-29T12:58:23;9.30;46.20
6556;DHT22;3311;48.32423000;14.29074500;2023-01-29T13:00:56;9.40;46.60
6556;DHT22;3311;48.32423000;14.29074500;2023-01-29T13:03:28;9.40;46.40
6556;DHT22;3311;48.32423000;14.29074500;2023-01-29T13:06:01;9.50;46.30
6556;DHT22;3311;48.32423000;14.29074500;2023-01-29T13:08:31;9.30;46.50
6556;DHT22;3311;48.32423000;14.29074500;2023-01-29T13:11:10;9.20;46.40
6556;DHT22;3311;48.32423000;14.29074500;2023-01-29T13:13:42;9.30;46.70
6556;DHT22;3311;48.32423000;14.29074500;2023-01-29T13:16:19;9.40;46.80
6556;DHT22;3311;48.32423000;14.29074500;2023-01-29T13:18:51;9.30;46.80
6556;DHT22;3311;48.32423000;14.29074500;2023-01-29T13:21:24;9.40;46.70
6556;DHT22;3311;48.32423000;14.29074500;2023-01-29T13:23:55;9.50;46.60
6556;DHT22;3311;48.32423000;14.29074500;2023-01-29T13:26:25;9.50;46.40
6556;DHT22;3311;48.32423000;14.29074500;2023-01-29T13:28:53;9.40;46.30
6556;DHT22;3311;48.32423000;14.29074500;2023-01-29T13:31:27;9.40;46.20
6556;DHT22;3311;48.32423000;14.29074500;2023-01-29T13:34:06;9.30;46.20
6556;DHT22;3311;48.32423000;14.29074500;2023-01-29T13:36:36;9.40;46.80
6556;DHT22;3311;48.32423000;14.29074500;2023-01-29T13:39:18;9.50;46.40
6556;DHT22;3311;48.32423000;14.29074500;2023-01-29T13:41:49;9.40;46.10
6556;DHT22;3311;48.32423000;14.29074500;2023-01-29T13:44:21;9.40;46.40
6556;DHT22;3311;48.32423000;14.29074500;2023-01-29T13:46:53;9.40;46.40
6556;DHT22;3311;48.32423000;14.29074500;2023-01-29T13:49:28;9.30;46.30
6556;DHT22;3311;48.32423000;14.29074500;2023-01-29T13:51:58;9.30;46.80
6556;DHT22;3311;48.32423000;14.29074500;2023-01-29T13:54:40;9.10;46.80
6556;DHT22;3311;48.32423000;14.29074500;2023-01-29T13:57:36;9.20;48.10
6556;DHT22;3311;48.32423000;14.29074500;2023-01-29T14:00:04;9.20;47.00
6556;DHT22;3311;48.32423000;14.29074500;2023-01-29T14:02:32;9.30;47.10
6556;DHT22;3311;48.32423000;14.29074500;2023-01-29T14:08:36;9.20;46.70
6556;DHT22;3311;48.32423000;14.29074500;2023-01-29T14:11:32;9.00;47.10
6556;DHT22;3311;48.32423000;14.29074500;2023-01-29T14:17:05;9.20;46.80
6556;DHT22;3311;48.32423000;14.29074500;2023-01-29T14:19:33;9.20;46.80
6556;DHT22;3311;48.32423000;14.29074500;2023-01-29T14:22:01;9.30;46.90
6556;DHT22;3311;48.32423000;14.29074500;2023-01-29T14:24:30;10.10;46.20
6556;DHT22;3311;48.32423000;14.29074500;2023-01-29T14:26:59;9.10;46.90